Time;durP1;ratioP1;P1;durP2;ratioP2;P2;SDS_P1;SDS_P2;PMS_P1;PMS_P2;Temp;Humidity;BMP_temperature;BMP_pressure;BME280_temperature;BME280_humidity;BME280_pressure;Samples;Min_cycle;Max_cycle;Signal;HPM_P1;HPM_P2
2022/06/14 00:03:10;;;;;;;;;;;;;;;15.24;67.96;100199.75;5055126;28;2305;-95
2022/06/14 00:05:36;;;;;;;;;;;;;;;15.22;67.92;100205.41;5051857;28;5057;-96
2022/06/14 00:08:02;;;;;;;;;;;;;;;15.21;67.95;100205.69;5056666;28;5523;-96
2022/06/14 00:10:29;;;;;;;;;;;;;;;15.21;67.94;100205.69;5052948;28;2189;-95
2022/06/14 00:12:55;;;;;;;;;;;;;;;15.20;67.88;100206.75;5056093;28;1918;-95
2022/06/14 00:15:22;;;;;;;;;;;;;;;15.19;67.90;100205.13;5056122;28;1314;-95
2022/06/14 00:17:48;;;;;;;;;;;;;;;15.18;67.85;100206.22;5054605;28;2141;-95
2022/06/14 00:20:14;;;;;;;;;;;;;;;15.17;67.87;100215.41;5053433;28;2135;-95
2022/06/14 00:22:41;;;;;;;;;;;;;;;15.16;67.88;100208.34;5072958;28;2165;-95
2022/06/14 00:25:07;;;;;;;;;;;;;;;15.15;67.89;100215.69;5056558;28;1240;-95
2022/06/14 00:27:34;;;;;;;;;;;;;;;15.14;67.73;100208.59;5056056;28;1262;-95
2022/06/14 00:30:00;;;;;;;;;;;;;;;15.13;67.77;100214.31;5051375;28;2150;-96
2022/06/14 00:32:26;;;;;;;;;;;;;;;15.12;67.73;100213.47;5049034;28;2138;-95
2022/06/14 00:34:53;;;;;;;;;;;;;;;15.12;67.73;100220.81;5046198;28;5108;-95
2022/06/14 00:37:19;;;;;;;;;;;;;;;15.09;67.75;100216.72;5070990;28;2138;-96
2022/06/14 00:39:45;;;;;;;;;;;;;;;15.10;67.78;100220.25;5059667;28;2187;-95
2022/06/14 00:42:12;;;;;;;;;;;;;;;15.09;67.71;100221.28;5049725;28;1181;-95
2022/06/14 00:44:38;;;;;;;;;;;;;;;15.08;67.77;100227.81;5051968;28;1765;-95
2022/06/14 00:47:05;;;;;;;;;;;;;;;15.06;67.71;100230.78;5049434;28;1305;-95
2022/06/14 00:49:31;;;;;;;;;;;;;;;15.05;67.67;100225.59;5052385;28;2158;-96
2022/06/14 00:51:57;;;;;;;;;;;;;;;15.04;67.62;100229.41;5072152;28;1280;-95
2022/06/14 00:54:25;;;;;;;;;;;;;;;15.04;67.60;100234.84;5055660;28;1918;-95
2022/06/14 00:56:51;;;;;;;;;;;;;;;15.01;67.66;100233.44;5054390;28;2088;-96
2022/06/14 00:59:17;;;;;;;;;;;;;;;15.00;67.68;100234.53;5053007;28;2253;-94
2022/06/14 01:01:44;;;;;;;;;;;;;;;15.00;67.71;100231.81;5041266;28;1200;-95
2022/06/14 01:04:10;;;;;;;;;;;;;;;14.99;67.65;100235.59;5061897;28;2312;-95
2022/06/14 01:06:36;;;;;;;;;;;;;;;14.99;67.70;100243.72;5055029;28;2355;-95
2022/06/14 01:09:03;;;;;;;;;;;;;;;14.97;67.62;100244.00;5048674;28;1268;-95
2022/06/14 01:11:29;;;;;;;;;;;;;;;14.97;67.64;100240.44;5055209;28;1317;-96
2022/06/14 01:13:55;;;;;;;;;;;;;;;14.94;67.62;100239.09;5067952;28;5206;-95
2022/06/14 01:16:22;;;;;;;;;;;;;;;14.94;67.57;100238.25;5050865;28;2166;-95
2022/06/14 01:18:48;;;;;;;;;;;;;;;14.92;67.58;100241.22;5054380;28;2151;-96
2022/06/14 01:21:15;;;;;;;;;;;;;;;14.93;67.61;100239.31;5070112;28;2097;-95
2022/06/14 01:23:41;;;;;;;;;;;;;;;14.92;67.56;100248.53;5048107;28;2317;-96
2022/06/14 01:26:08;;;;;;;;;;;;;;;14.90;67.59;100246.06;5046991;28;2193;-95
2022/06/14 01:28:34;;;;;;;;;;;;;;;14.89;67.46;100247.16;5054625;28;1377;-95
2022/06/14 01:31:01;;;;;;;;;;;;;;;14.88;67.52;100253.66;5054280;28;1322;-95
2022/06/14 01:33:27;;;;;;;;;;;;;;;14.88;67.43;100255.53;5070822;28;1925;-95
2022/06/14 01:35:53;;;;;;;;;;;;;;;14.85;67.52;100248.72;5040302;28;2178;-96
2022/06/14 01:38:20;;;;;;;;;;;;;;;14.85;67.55;100258.75;5042343;28;5162;-95
2022/06/14 01:40:47;;;;;;;;;;;;;;;14.84;67.33;100257.94;5048926;28;1402;-95
2022/06/14 01:43:13;;;;;;;;;;;;;;;14.84;67.53;100267.97;5070817;28;1246;-95
2022/06/14 01:45:40;;;;;;;;;;;;;;;14.82;67.34;100264.69;5048103;28;2190;-96
2022/06/14 01:48:06;;;;;;;;;;;;;;;14.80;67.40;100266.84;5052408;28;2052;-96
2022/06/14 01:53:16;;;;;;;;;;;;;;;14.79;67.40;100262.50;5064892;28;1918;-95
2022/06/14 01:55:43;;;;;;;;;;;;;;;14.77;67.38;100265.47;5064253;28;2312;-96
2022/06/14 01:58:09;;;;;;;;;;;;;;;14.75;67.33;100278.44;5048791;28;1182;-95
2022/06/14 02:00:36;;;;;;;;;;;;;;;14.73;67.44;100267.84;5052208;28;2226;-95
2022/06/14 02:05:46;;;;;;;;;;;;;;;14.72;67.36;100274.34;5046344;28;2273;-96
2022/06/14 02:08:12;;;;;;;;;;;;;;;14.72;67.36;100278.97;5062750;28;1081;-96
2022/06/14 02:10:39;;;;;;;;;;;;;;;14.69;67.31;100274.88;5060728;28;1126;-95
2022/06/14 02:13:05;;;;;;;;;;;;;;;14.69;67.31;100279.47;5070193;28;1987;-95
2022/06/14 02:15:31;;;;;;;;;;;;;;;14.69;67.28;100279.47;5067335;28;2189;-95
2022/06/14 02:17:58;;;;;;;;;;;;;;;14.66;67.35;100279.97;5049084;28;2139;-95
2022/06/14 02:20:24;;;;;;;;;;;;;;;14.65;67.33;100276.44;5062502;28;5122;-96
2022/06/14 02:22:50;;;;;;;;;;;;;;;14.64;67.32;100282.94;5053633;28;1195;-95
2022/06/14 02:25:17;;;;;;;;;;;;;;;14.64;67.35;100290.25;5063689;28;2146;-95
2022/06/14 02:27:43;;;;;;;;;;;;;;;14.63;67.31;100284.00;5047735;28;2084;-96
2022/06/14 02:30:10;;;;;;;;;;;;;;;14.62;67.35;100281.53;5054147;28;1204;-96
2022/06/14 02:32:36;;;;;;;;;;;;;;;14.59;67.33;100282.03;5067823;28;1258;-95
2022/06/14 02:35:03;;;;;;;;;;;;;;;14.60;67.34;100289.13;5065586;28;2240;-95
2022/06/14 02:37:29;;;;;;;;;;;;;;;14.57;67.24;100285.03;5053767;28;1178;-95
2022/06/14 02:39:56;;;;;;;;;;;;;;;14.58;67.29;100289.34;5070236;28;1672;-95
2022/06/14 02:42:22;;;;;;;;;;;;;;;14.57;67.23;100290.44;5050037;28;5118;-96
2022/06/14 02:44:48;;;;;;;;;;;;;;;14.56;67.26;100296.09;5046124;28;2209;-95
2022/06/14 02:47:15;;;;;;;;;;;;;;;14.55;67.16;100298.00;5052716;28;1386;-95
2022/06/14 02:49:41;;;;;;;;;;;;;;;14.54;67.31;100297.19;5073226;28;1778;-95
2022/06/14 02:52:08;;;;;;;;;;;;;;;14.52;67.24;100303.91;5057771;28;1203;-95
2022/06/14 02:54:34;;;;;;;;;;;;;;;14.53;67.19;100300.97;5048447;28;2024;-95
2022/06/14 02:57:00;;;;;;;;;;;;;;;14.53;67.06;100302.88;5068712;28;1293;-96
2022/06/14 02:59:27;;;;;;;;;;;;;;;14.51;67.23;100307.69;5074470;28;1287;-95
2022/06/14 03:01:53;;;;;;;;;;;;;;;14.50;67.03;100309.56;5064368;28;2159;-95
2022/06/14 03:04:19;;;;;;;;;;;;;;;14.49;67.15;100307.09;5065133;28;2577;-95
2022/06/14 03:06:46;;;;;;;;;;;;;;;14.47;67.15;100320.91;5068973;28;1193;-95
2022/06/14 03:09:13;;;;;;;;;;;;;;;14.48;67.18;100311.72;5072459;28;2027;-95
2022/06/14 03:11:39;;;;;;;;;;;;;;;14.46;67.10;100313.03;5057185;28;1220;-95
2022/06/14 03:14:06;;;;;;;;;;;;;;;14.46;67.06;100315.72;5053110;28;2090;-95
2022/06/14 03:16:32;;;;;;;;;;;;;;;14.44;67.09;100316.00;5057118;28;1109;-95
2022/06/14 03:18:58;;;;;;;;;;;;;;;14.43;67.04;100316.22;5071984;28;2162;-96
2022/06/14 03:21:25;;;;;;;;;;;;;;;14.42;67.12;100325.44;5057173;28;1386;-96
2022/06/14 03:23:51;;;;;;;;;;;;;;;14.40;67.13;100319.44;5065216;28;2315;-95
2022/06/14 03:26:18;;;;;;;;;;;;;;;14.40;67.15;100319.44;5052400;28;1240;-96
2022/06/14 03:28:44;;;;;;;;;;;;;;;14.40;67.02;100327.56;5053883;28;5149;-95
2022/06/14 03:31:10;;;;;;;;;;;;;;;14.39;67.04;100325.94;5056748;28;1186;-95
2022/06/14 03:33:37;;;;;;;;;;;;;;;14.39;67.01;100336.78;5060667;28;2266;-96
2022/06/14 03:36:03;;;;;;;;;;;;;;;14.38;67.01;100332.41;5051172;28;1992;-95
2022/06/14 03:38:29;;;;;;;;;;;;;;;14.37;67.00;100342.44;5057285;28;1349;-96
2022/06/14 03:40:56;;;;;;;;;;;;;;;14.38;66.91;100340.53;5055994;28;2156;-96
2022/06/14 03:43:22;;;;;;;;;;;;;;;14.37;66.85;100344.34;5073058;28;2136;-96
2022/06/14 03:45:48;;;;;;;;;;;;;;;14.37;66.79;100352.47;5052801;28;5169;-95
2022/06/14 03:48:15;;;;;;;;;;;;;;;14.35;66.80;100338.34;5052520;28;2156;-95
2022/06/14 03:50:41;;;;;;;;;;;;;;;14.35;66.85;100352.69;5049415;28;2143;-95
2022/06/14 03:53:08;;;;;;;;;;;;;;;14.33;66.92;100349.44;5056013;28;2201;-95
2022/06/14 03:55:34;;;;;;;;;;;;;;;14.31;67.00;100349.66;5059500;28;1906;-95
2022/06/14 03:58:00;;;;;;;;;;;;;;;14.31;66.79;100348.84;5079739;28;2047;-95
2022/06/14 04:00:27;;;;;;;;;;;;;;;14.31;66.67;100360.50;5058153;28;2045;-95
2022/06/14 04:02:56;;;;;;;;;;;;;;;14.30;66.79;100358.88;5059088;28;1874;-95
2022/06/14 04:05:23;;;;;;;;;;;;;;;14.29;66.81;100357.25;5073815;28;1183;-96
2022/06/14 04:07:49;;;;;;;;;;;;;;;14.30;66.79;100355.34;5077048;28;1207;-95
2022/06/14 04:10:16;;;;;;;;;;;;;;;14.28;66.64;100352.88;5074704;28;2192;-95
2022/06/14 04:12:42;;;;;;;;;;;;;;;14.27;66.67;100362.09;5072024;28;1195;-95
2022/06/14 04:15:09;;;;;;;;;;;;;;;14.26;66.56;100357.72;5057076;28;2162;-95
2022/06/14 04:17:35;;;;;;;;;;;;;;;14.26;66.74;100359.59;5059369;28;1294;-95
2022/06/14 04:20:01;;;;;;;;;;;;;;;14.25;66.67;100369.63;5054044;28;2088;-95
2022/06/14 04:22:28;;;;;;;;;;;;;;;14.24;66.70;100364.47;5052158;28;2266;-95
2022/06/14 04:24:54;;;;;;;;;;;;;;;14.23;66.65;100371.75;5092134;28;1292;-95
2022/06/14 04:27:21;;;;;;;;;;;;;;;14.23;66.71;100370.94;5083293;28;1262;-95
2022/06/14 04:29:47;;;;;;;;;;;;;;;14.24;66.63;100375.31;5065935;28;1274;-95
2022/06/14 04:32:13;;;;;;;;;;;;;;;14.25;66.57;100374.22;5068911;28;2188;-95
2022/06/14 04:34:40;;;;;;;;;;;;;;;14.23;66.56;100373.66;5058025;28;2020;-95
2022/06/14 04:37:06;;;;;;;;;;;;;;;14.23;66.38;100369.03;5068534;28;5117;-95
2022/06/14 04:39:33;;;;;;;;;;;;;;;14.21;66.39;100364.97;5061847;28;2257;-95
2022/06/14 04:41:59;;;;;;;;;;;;;;;14.22;66.48;100372.84;5057559;28;2053;-95
2022/06/14 04:44:25;;;;;;;;;;;;;;;14.21;66.56;100378.50;5082422;28;1249;-95
2022/06/14 04:46:52;;;;;;;;;;;;;;;14.20;66.55;100391.22;5074844;28;2168;-95
2022/06/14 04:49:18;;;;;;;;;;;;;;;14.19;66.40;100384.16;5055948;28;2256;-95
2022/06/14 04:51:44;;;;;;;;;;;;;;;14.20;66.43;100390.41;5071809;28;5102;-95
2022/06/14 04:54:11;;;;;;;;;;;;;;;14.19;66.48;100386.88;5075517;28;1918;-96
2022/06/14 04:56:37;;;;;;;;;;;;;;;14.19;66.51;100395.00;5055733;28;1302;-95
2022/06/14 04:59:04;;;;;;;;;;;;;;;14.19;66.48;100394.19;5045752;28;2179;-95
2022/06/14 05:01:30;;;;;;;;;;;;;;;14.18;66.29;100389.84;5053362;28;2068;-95
2022/06/14 05:03:57;;;;;;;;;;;;;;;14.18;66.42;100387.13;5053008;28;2239;-95
2022/06/14 05:06:24;;;;;;;;;;;;;;;14.17;66.24;100394.41;5051277;28;2293;-96
2022/06/14 05:08:50;;;;;;;;;;;;;;;14.16;66.26;100397.38;5061294;28;1953;-95
2022/06/14 05:11:17;;;;;;;;;;;;;;;14.16;66.34;100392.78;5062972;28;1290;-95
2022/06/14 05:13:43;;;;;;;;;;;;;;;14.15;66.22;100396.56;5061112;28;1914;-95
2022/06/14 05:16:10;;;;;;;;;;;;;;;14.14;66.29;100394.91;5053111;28;2254;-96
2022/06/14 05:18:36;;;;;;;;;;;;;;;14.14;66.46;100404.94;5055077;28;1164;-95
2022/06/14 05:21:02;;;;;;;;;;;;;;;14.15;66.34;100398.44;5054079;28;2111;-95
2022/06/14 05:23:29;;;;;;;;;;;;;;;14.13;66.32;100398.69;5054816;28;1278;-95
2022/06/14 05:25:55;;;;;;;;;;;;;;;14.14;66.16;100408.44;5068824;28;2004;-95
2022/06/14 05:28:21;;;;;;;;;;;;;;;14.12;66.34;100405.19;5054979;28;1641;-94
2022/06/14 05:30:48;;;;;;;;;;;;;;;14.11;66.11;100398.13;5047290;28;3303;-95
2022/06/14 05:33:14;;;;;;;;;;;;;;;14.12;66.17;100402.47;5047835;28;2745;-94
2022/06/14 05:35:41;;;;;;;;;;;;;;;14.11;66.16;100400.81;5039597;28;2586;-95
2022/06/14 05:38:07;;;;;;;;;;;;;;;14.11;66.25;100408.13;5054484;28;2062;-95
2022/06/14 05:40:34;;;;;;;;;;;;;;;14.12;66.06;100407.06;5054393;28;2405;-94
2022/06/14 05:43:00;;;;;;;;;;;;;;;14.13;66.21;100406.00;5054391;28;1251;-94
2022/06/14 05:45:27;;;;;;;;;;;;;;;14.12;66.23;100415.19;5065135;28;2073;-95
2022/06/14 05:47:54;;;;;;;;;;;;;;;14.11;66.02;100416.25;5049235;28;2771;-94
2022/06/14 05:50:20;;;;;;;;;;;;;;;14.11;66.04;100417.06;5042168;28;2420;-94
2022/06/14 05:52:47;;;;;;;;;;;;;;;14.11;66.15;100417.06;5065817;28;2072;-95
2022/06/14 05:55:13;;;;;;;;;;;;;;;14.11;66.02;100425.19;5068651;28;3907;-95
2022/06/14 05:57:40;;;;;;;;;;;;;;;14.13;66.03;100423.06;5030899;28;2361;-94
2022/06/14 06:00:06;;;;;;;;;;;;;;;14.12;65.93;100418.72;5056255;28;1837;-94
2022/06/14 06:02:33;;;;;;;;;;;;;;;14.12;65.95;100421.44;5034444;28;1294;-95
2022/06/14 06:04:59;;;;;;;;;;;;;;;14.13;65.93;100422.25;5066356;28;1287;-94
2022/06/14 06:07:26;;;;;;;;;;;;;;;14.12;65.91;100424.16;5033883;28;2456;-94
2022/06/14 06:09:52;;;;;;;;;;;;;;;14.12;65.89;100436.84;5034181;28;1207;-95
2022/06/14 06:12:19;;;;;;;;;;;;;;;14.14;65.75;100443.66;5050920;28;2711;-95
2022/06/14 06:14:45;;;;;;;;;;;;;;;14.13;65.86;100436.63;5051157;28;1902;-95
2022/06/14 06:17:12;;;;;;;;;;;;;;;14.14;65.76;100442.84;5044678;28;1702;-95
2022/06/14 06:19:39;;;;;;;;;;;;;;;14.13;65.62;100442.03;5035649;28;2158;-94
2022/06/14 06:22:06;;;;;;;;;;;;;;;14.14;65.86;100440.13;5036074;28;1361;-94
2022/06/14 06:24:33;;;;;;;;;;;;;;;14.15;65.63;100447.19;5032789;28;1511;-95
2022/06/14 06:26:59;;;;;;;;;;;;;;;14.16;65.67;100443.44;5032357;28;2437;-95
2022/06/14 06:29:26;;;;;;;;;;;;;;;14.15;65.84;100447.19;5030158;28;1927;-93
2022/06/14 06:31:52;;;;;;;;;;;;;;;14.14;65.64;100449.06;5040111;28;2294;-95
2022/06/14 06:34:19;;;;;;;;;;;;;;;14.15;65.57;100448.03;5033852;28;1918;-95
2022/06/14 06:36:45;;;;;;;;;;;;;;;14.16;65.56;100454.25;5039769;28;2348;-96
2022/06/14 06:39:12;;;;;;;;;;;;;;;14.16;65.60;100448.84;5028914;28;2112;-95
2022/06/14 06:41:51;;;;;;;;;;;;;;;14.17;65.53;100447.78;5048948;28;2133;-95
2022/06/14 06:44:18;;;;;;;;;;;;;;;14.16;65.52;100448.84;5033130;28;2094;-95
2022/06/14 06:46:44;;;;;;;;;;;;;;;14.18;65.49;100458.38;5050212;28;2190;-95
2022/06/14 06:49:12;;;;;;;;;;;;;;;14.17;65.50;100451.28;5033912;28;1232;-95
2022/06/14 06:51:38;;;;;;;;;;;;;;;14.17;65.62;100456.72;5034286;28;1541;-95
2022/06/14 06:54:06;;;;;;;;;;;;;;;14.18;65.45;100454.84;5050322;28;1981;-95
2022/06/14 06:56:32;;;;;;;;;;;;;;;14.17;65.43;100450.47;5054986;28;2202;-96
2022/06/14 06:58:59;;;;;;;;;;;;;;;14.17;65.58;100448.59;5051001;28;1306;-95
2022/06/14 07:01:25;;;;;;;;;;;;;;;14.17;65.41;100454.00;5033984;28;1302;-95
2022/06/14 07:03:52;;;;;;;;;;;;;;;14.18;65.41;100462.97;5049909;28;2144;-95
2022/06/14 07:06:19;;;;;;;;;;;;;;;14.18;65.57;100462.97;5067385;28;1261;-95
2022/06/14 07:08:45;;;;;;;;;;;;;;;14.19;65.30;100461.91;5033793;28;1209;-95
2022/06/14 07:11:12;;;;;;;;;;;;;;;14.18;65.29;100461.06;5063743;28;1176;-94
2022/06/14 07:13:39;;;;;;;;;;;;;;;14.19;65.43;100460.00;5053967;28;1195;-95
2022/06/14 07:16:06;;;;;;;;;;;;;;;14.19;65.31;100454.59;5053696;28;1910;-95
2022/06/14 07:18:33;;;;;;;;;;;;;;;14.19;65.25;100465.41;5051832;28;2098;-95
2022/06/14 07:20:59;;;;;;;;;;;;;;;14.18;65.36;100461.06;5053531;28;1263;-94
2022/06/14 07:23:26;;;;;;;;;;;;;;;14.20;65.13;100466.22;5053339;28;1199;-95
2022/06/14 07:25:52;;;;;;;;;;;;;;;14.19;65.49;100464.59;5052345;28;2127;-95
2022/06/14 07:28:19;;;;;;;;;;;;;;;14.20;65.32;100460.81;5064077;28;1198;-95
2022/06/14 07:30:49;;;;;;;;;;;;;;;14.21;65.44;100465.19;5056832;28;1235;-96
2022/06/14 07:33:15;;;;;;;;;;;;;;;14.20;65.56;100458.94;5070007;28;2205;-95
2022/06/14 07:35:42;;;;;;;;;;;;;;;14.21;65.41;100465.19;5072645;28;2078;-95
2022/06/14 07:38:08;;;;;;;;;;;;;;;14.21;65.41;100467.91;5073838;28;1187;-95
2022/06/14 07:40:35;;;;;;;;;;;;;;;14.21;65.34;100468.72;5057356;28;1271;-95
2022/06/14 07:43:01;;;;;;;;;;;;;;;14.21;65.45;100468.72;5057008;28;1223;-95
2022/06/14 07:45:28;;;;;;;;;;;;;;;14.22;65.42;100472.25;5056955;28;1179;-95
2022/06/14 07:47:54;;;;;;;;;;;;;;;14.21;65.41;100468.72;5055510;28;2064;-94
2022/06/14 07:50:22;;;;;;;;;;;;;;;14.22;65.24;100464.09;5073587;28;1298;-95
2022/06/14 07:52:49;;;;;;;;;;;;;;;14.22;65.58;100458.69;5073689;28;1318;-95
2022/06/14 07:55:16;;;;;;;;;;;;;;;14.23;65.49;100463.03;5066882;28;4590;-95
2022/06/14 07:57:42;;;;;;;;;;;;;;;14.24;65.50;100470.13;5057487;28;2132;-94
2022/06/14 08:02:49;;;;;;;;;;;;;;;14.24;65.49;100473.63;5049561;28;5112;-95
2022/06/14 08:05:16;;;;;;;;;;;;;;;14.22;65.58;100470.34;5070633;28;1311;-94
2022/06/14 08:07:42;;;;;;;;;;;;;;;14.25;65.60;100472.56;5065054;28;1259;-95
2022/06/14 08:10:09;;;;;;;;;;;;;;;14.25;65.60;100471.75;5076749;28;1183;-95
2022/06/14 08:12:35;;;;;;;;;;;;;;;14.24;65.52;100475.53;5076383;28;1497;-95
2022/06/14 08:15:02;;;;;;;;;;;;;;;14.25;65.69;100482.56;5076323;28;1906;-94
2022/06/14 08:17:28;;;;;;;;;;;;;;;14.25;65.66;100477.97;5056139;28;2381;-94
2022/06/14 08:19:55;;;;;;;;;;;;;;;14.26;65.55;100476.91;5055115;28;2189;-95
2022/06/14 08:22:22;;;;;;;;;;;;;;;14.27;65.57;100478.56;5059447;28;1280;-95
2022/06/14 08:24:49;;;;;;;;;;;;;;;14.27;65.42;100483.97;5058617;28;2119;-94
2022/06/14 08:27:15;;;;;;;;;;;;;;;14.28;65.37;100480.19;5052445;28;1308;-95
2022/06/14 08:29:43;;;;;;;;;;;;;;;14.28;65.50;100485.59;5056586;28;1402;-94
2022/06/14 08:32:09;;;;;;;;;;;;;;;14.29;65.69;100481.84;5042326;28;2378;-95
2022/06/14 08:34:36;;;;;;;;;;;;;;;14.29;65.35;100484.56;5075533;28;2152;-95
2022/06/14 08:37:03;;;;;;;;;;;;;;;14.30;65.60;100486.19;5059413;28;1311;-95
2022/06/14 08:39:29;;;;;;;;;;;;;;;14.31;65.43;100484.31;5081799;28;1197;-95
2022/06/14 08:41:56;;;;;;;;;;;;;;;14.31;65.55;100487.00;5074780;28;1218;-95
2022/06/14 08:44:22;;;;;;;;;;;;;;;14.31;65.53;100489.72;5079589;28;1190;-96
2022/06/14 08:46:50;;;;;;;;;;;;;;;14.32;65.62;100486.78;5057811;28;2320;-95
2022/06/14 08:49:17;;;;;;;;;;;;;;;14.32;65.53;100491.34;5058980;28;1319;-95
2022/06/14 08:51:43;;;;;;;;;;;;;;;14.34;65.71;100494.66;5081436;28;1324;-95
2022/06/14 08:54:10;;;;;;;;;;;;;;;14.34;65.67;100488.41;5076017;28;1210;-95
2022/06/14 08:56:40;;;;;;;;;;;;;;;14.35;65.61;100492.75;5062458;28;1909;-95
2022/06/14 08:59:06;;;;;;;;;;;;;;;14.35;65.60;100492.75;5075600;28;1175;-95
2022/06/14 09:01:33;;;;;;;;;;;;;;;14.36;65.50;100497.13;5070117;28;2198;-95
2022/06/14 09:03:59;;;;;;;;;;;;;;;14.36;65.52;100497.13;5059081;28;1191;-95
2022/06/14 09:06:31;;;;;;;;;;;;;;;14.37;65.63;100501.47;5054994;28;1585;-95
2022/06/14 09:08:57;;;;;;;;;;;;;;;14.36;65.68;100495.22;5055621;28;1186;-95
2022/06/14 09:11:24;;;;;;;;;;;;;;;14.36;65.73;100495.22;5070625;28;1516;-95
2022/06/14 09:13:50;;;;;;;;;;;;;;;14.38;65.56;100501.19;5096388;28;996;-94
2022/06/14 09:16:17;;;;;;;;;;;;;;;14.37;65.53;100491.44;5058201;28;2441;-95
2022/06/14 09:18:43;;;;;;;;;;;;;;;14.38;65.60;100494.97;5077471;28;2039;-95
2022/06/14 09:21:10;;;;;;;;;;;;;;;14.38;65.51;100498.50;5075224;28;1272;-95
2022/06/14 09:23:36;;;;;;;;;;;;;;;14.39;65.48;100497.44;5058545;28;1215;-95
2022/06/14 09:26:03;;;;;;;;;;;;;;;14.40;65.63;100490.94;5050067;28;1302;-95
2022/06/14 09:28:29;;;;;;;;;;;;;;;14.42;65.67;100498.84;5038401;28;1195;-95
2022/06/14 09:30:56;;;;;;;;;;;;;;;14.41;65.67;100498.03;5072596;28;2103;-95
2022/06/14 09:33:23;;;;;;;;;;;;;;;14.41;65.71;100498.03;5057975;28;1163;-95
2022/06/14 09:35:49;;;;;;;;;;;;;;;14.42;65.52;100504.25;5054644;28;2233;-95
2022/06/14 09:38:16;;;;;;;;;;;;;;;14.43;65.51;100501.28;5065980;28;2345;-95
2022/06/14 09:40:42;;;;;;;;;;;;;;;14.45;65.65;100515.44;5057526;28;2160;-95
2022/06/14 09:43:09;;;;;;;;;;;;;;;14.45;65.70;100510.00;5057857;28;1256;-95
2022/06/14 09:45:36;;;;;;;;;;;;;;;14.46;65.70;100503.50;5056779;28;2159;-95
2022/06/14 09:48:02;;;;;;;;;;;;;;;14.47;65.86;100510.59;5058206;28;1245;-96
2022/06/14 09:50:30;;;;;;;;;;;;;;;14.48;65.82;100509.50;5058370;28;1199;-95
2022/06/14 09:52:57;;;;;;;;;;;;;;;14.49;65.80;100503.00;5075356;28;987;-95
2022/06/14 09:55:23;;;;;;;;;;;;;;;14.50;65.93;100510.09;5070370;28;2134;-95
2022/06/14 09:57:50;;;;;;;;;;;;;;;14.50;65.86;100498.41;5057678;28;1306;-95
2022/06/14 10:00:17;;;;;;;;;;;;;;;14.51;65.95;100506.34;5054855;28;2174;-95
2022/06/14 10:02:43;;;;;;;;;;;;;;;14.52;66.00;100502.56;5072347;28;5074;-95
2022/06/14 10:05:10;;;;;;;;;;;;;;;14.54;66.08;100502.31;5057825;28;1162;-95
2022/06/14 10:07:36;;;;;;;;;;;;;;;14.54;66.08;100491.47;5057147;28;2192;-96
2022/06/14 10:10:03;;;;;;;;;;;;;;;14.56;66.10;100508.31;5056463;28;2157;-95
2022/06/14 10:12:29;;;;;;;;;;;;;;;14.56;66.03;100496.63;5074430;28;1319;-95
2022/06/14 10:14:56;;;;;;;;;;;;;;;14.57;66.17;100493.69;5065440;28;2223;-96
2022/06/14 10:17:22;;;;;;;;;;;;;;;14.58;66.15;100498.03;5057926;28;1297;-95
2022/06/14 10:19:49;;;;;;;;;;;;;;;14.58;66.14;100492.63;5057542;28;1255;-94
2022/06/14 10:22:15;;;;;;;;;;;;;;;14.60;66.11;100492.38;5057374;28;1215;-95
2022/06/14 10:24:42;;;;;;;;;;;;;;;14.61;66.15;100492.13;5057549;28;1190;-95
2022/06/14 10:29:53;;;;;;;;;;;;;;;14.63;66.12;100498.13;5054114;28;2048;-96
2022/06/14 10:32:19;;;;;;;;;;;;;;;14.65;66.12;100489.75;5053627;28;2040;-95
2022/06/14 10:34:46;;;;;;;;;;;;;;;14.65;66.25;100487.03;5054291;28;1349;-95
2022/06/14 10:37:12;;;;;;;;;;;;;;;14.67;66.03;100490.31;5060509;28;1910;-95
2022/06/14 10:39:39;;;;;;;;;;;;;;;14.68;66.23;100487.38;5057625;28;1188;-95
2022/06/14 10:42:06;;;;;;;;;;;;;;;14.70;66.32;100492.53;5057518;28;1295;-95
2022/06/14 10:44:33;;;;;;;;;;;;;;;14.70;66.30;100493.34;5056642;28;1957;-95
2022/06/14 10:46:59;;;;;;;;;;;;;;;14.72;66.19;100495.81;5056012;28;2028;-95
2022/06/14 10:49:26;;;;;;;;;;;;;;;14.72;66.33;100490.41;5057481;28;1310;-96
2022/06/14 10:51:52;;;;;;;;;;;;;;;14.75;66.36;100489.91;5066866;28;1282;-95
2022/06/14 10:54:20;;;;;;;;;;;;;;;14.75;66.37;100484.47;5064270;28;1379;-96
2022/06/14 10:56:46;;;;;;;;;;;;;;;14.76;66.51;100484.25;5056625;28;1906;-95
2022/06/14 10:59:13;;;;;;;;;;;;;;;14.78;66.38;100486.69;5055120;28;2139;-96
2022/06/14 11:01:40;;;;;;;;;;;;;;;14.80;66.52;100489.16;5055738;28;2111;-96
2022/06/14 11:04:06;;;;;;;;;;;;;;;14.80;66.56;100481.84;5076247;28;956;-96
2022/06/14 11:06:33;;;;;;;;;;;;;;;14.83;66.46;100480.53;5060977;28;1231;-95
2022/06/14 11:08:59;;;;;;;;;;;;;;;14.84;66.56;100482.16;5077683;28;1195;-96
2022/06/14 11:11:26;;;;;;;;;;;;;;;14.84;66.65;100477.56;5058320;28;3745;-96
2022/06/14 11:13:52;;;;;;;;;;;;;;;14.86;66.52;100478.13;5059319;28;2132;-96
2022/06/14 11:16:19;;;;;;;;;;;;;;;14.88;66.63;100477.88;5060637;28;1906;-95
2022/06/14 11:18:45;;;;;;;;;;;;;;;14.88;66.72;100473.28;5061189;28;1359;-95
2022/06/14 11:21:13;;;;;;;;;;;;;;;14.89;66.79;100477.63;5088268;28;4120;-96
2022/06/14 11:23:40;;;;;;;;;;;;;;;14.91;66.62;100477.38;5060906;28;1120;-96
2022/06/14 11:26:07;;;;;;;;;;;;;;;14.92;66.67;100479.84;5060830;28;1191;-96
2022/06/14 11:28:36;;;;;;;;;;;;;;;14.93;66.79;100476.03;5059295;28;2005;-96
2022/06/14 11:31:03;;;;;;;;;;;;;;;14.95;66.85;100475.81;5060930;28;1163;-95
2022/06/14 11:33:29;;;;;;;;;;;;;;;14.95;66.69;100473.91;5060446;28;1396;-96
2022/06/14 11:35:56;;;;;;;;;;;;;;;14.96;66.73;100482.88;5094427;28;1914;-96
2022/06/14 11:38:25;;;;;;;;;;;;;;;14.98;66.64;100481.56;5093932;28;1294;-96
2022/06/14 11:40:51;;;;;;;;;;;;;;;14.99;66.65;100482.38;5060451;28;1260;-96
2022/06/14 11:43:18;;;;;;;;;;;;;;;15.02;66.70;100476.44;5040777;28;2010;-96
2022/06/14 11:45:45;;;;;;;;;;;;;;;15.00;66.93;100484.03;5058602;28;2273;-96
2022/06/14 11:48:11;;;;;;;;;;;;;;;15.03;66.56;100477.25;5060464;28;1209;-95
2022/06/14 11:50:38;;;;;;;;;;;;;;;15.05;66.69;100478.66;5072065;28;1390;-96
2022/06/14 11:53:04;;;;;;;;;;;;;;;15.08;66.77;100480.84;5040307;28;1305;-95
2022/06/14 11:55:31;;;;;;;;;;;;;;;15.12;66.81;100482.00;5045378;28;1914;-95
2022/06/14 11:57:57;;;;;;;;;;;;;;;15.15;66.72;100483.41;5058960;28;2107;-96
2022/06/14 12:00:24;;;;;;;;;;;;;;;15.16;66.86;100482.31;5089553;28;1356;-96
2022/06/14 12:02:51;;;;;;;;;;;;;;;15.15;66.95;100486.94;5051980;28;1319;-96
2022/06/14 12:05:17;;;;;;;;;;;;;;;15.19;67.03;100481.81;5060414;28;1180;-96
2022/06/14 12:07:44;;;;;;;;;;;;;;;15.21;67.03;100479.69;5058691;28;2250;-96
2022/06/14 12:10:10;;;;;;;;;;;;;;;15.21;67.10;100477.78;5040540;28;1208;-96
2022/06/14 12:12:37;;;;;;;;;;;;;;;15.21;67.20;100469.66;5057649;28;1995;-96
2022/06/14 12:15:03;;;;;;;;;;;;;;;15.24;67.31;100476.47;5051319;28;2506;-96
2022/06/14 12:17:30;;;;;;;;;;;;;;;15.24;67.34;100473.75;5056619;28;1921;-96
2022/06/14 12:19:57;;;;;;;;;;;;;;;15.26;67.31;100477.00;5056478;28;1170;-95
2022/06/14 12:22:31;;;;;;;;;;;;;;;15.28;67.40;100482.19;5066520;28;1325;-96
2022/06/14 12:27:41;;;;;;;;;;;;;;;15.29;67.48;100481.94;5058332;28;2444;-95
2022/06/14 12:30:09;;;;;;;;;;;;;;;15.31;67.51;100482.50;5043206;28;2487;-95
2022/06/14 12:32:35;;;;;;;;;;;;;;;15.31;67.45;100487.94;5039452;28;1371;-96
2022/06/14 12:35:02;;;;;;;;;;;;;;;15.33;67.50;100474.94;5057906;28;1321;-96
2022/06/14 12:37:28;;;;;;;;;;;;;;;15.35;67.55;100485.53;5073977;28;2066;-96
2022/06/14 12:39:55;;;;;;;;;;;;;;;15.36;67.51;100484.47;5039462;28;1196;-96
2022/06/14 12:42:21;;;;;;;;;;;;;;;15.38;67.47;100485.03;5054163;28;2127;-96
2022/06/14 12:44:48;;;;;;;;;;;;;;;15.39;67.57;100479.34;5059094;28;1406;-96
2022/06/14 12:47:16;;;;;;;;;;;;;;;15.40;67.51;100486.41;5059497;28;1504;-96
2022/06/14 12:49:42;;;;;;;;;;;;;;;15.41;67.56;100477.22;5058997;28;1280;-96
2022/06/14 12:52:09;;;;;;;;;;;;;;;15.45;67.64;100486.47;5063911;28;2142;-96
2022/06/14 12:54:35;;;;;;;;;;;;;;;15.48;67.62;100484.34;5078424;28;1190;-96
2022/06/14 12:57:02;;;;;;;;;;;;;;;15.50;67.63;100479.47;5066473;28;2068;-96
2022/06/14 12:59:28;;;;;;;;;;;;;;;15.53;67.55;100496.09;5059320;28;1300;-95